Time;durP1;ratioP1;P1;durP2;ratioP2;P2;SDS_P1;SDS_P2;PMS_P1;PMS_P2;Temp;Humidity;BMP_temperature;BMP_pressure;BME280_temperature;BME280_humidity;BME280_pressure;Samples;Min_cycle;Max_cycle;Signal;HPM_P1;HPM_P2
2022/12/20 08:46:37;;;;;;;2.10;1.07;;;10.70;99.90;;;;;;3723481;23;20243;-69
2022/12/20 08:49:04;;;;;;;3.60;1.03;;;10.70;99.90;;;;;;4888675;29;20214;-71
2022/12/20 08:51:31;;;;;;;3.30;1.30;;;10.70;99.90;;;;;;4882447;29;20207;-73
2022/12/20 08:53:58;;;;;;;1.93;1.20;;;10.70;99.90;;;;;;4882314;29;20227;-72
2022/12/20 08:56:25;;;;;;;2.30;0.93;;;10.80;99.90;;;;;;4881976;29;20207;-73
2022/12/20 08:58:52;;;;;;;1.53;0.80;;;10.80;99.90;;;;;;4882764;29;20215;-70
2022/12/20 09:01:21;;;;;;;1.03;0.67;;;10.80;99.90;;;;;;4882379;29;20243;-71
2022/12/20 09:03:50;;;;;;;2.33;0.80;;;10.80;99.90;;;;;;4882318;29;20223;-71
2022/12/20 09:06:19;;;;;;;1.17;0.77;;;10.90;99.90;;;;;;4882355;29;20221;-69
2022/12/20 09:08:47;;;;;;;1.53;0.80;;;11.00;99.90;;;;;;4882275;29;20298;-74
2022/12/20 09:11:16;;;;;;;3.50;0.97;;;11.00;99.90;;;;;;4882598;29;20226;-71
2022/12/20 09:13:44;;;;;;;4.03;1.10;;;11.10;99.90;;;;;;4881621;29;20231;-69
2022/12/20 09:16:13;;;;;;;1.53;0.73;;;11.10;99.90;;;;;;4881943;29;20240;-73
2022/12/20 09:18:40;;;;;;;1.10;0.80;;;11.10;99.90;;;;;;4881852;29;20212;-72
2022/12/20 09:21:09;;;;;;;1.60;0.87;;;11.20;99.90;;;;;;4881894;29;20238;-70
2022/12/20 09:23:37;;;;;;;2.03;0.60;;;11.20;99.90;;;;;;4881738;29;20228;-69
2022/12/20 09:26:06;;;;;;;1.13;0.73;;;11.30;99.90;;;;;;4881663;29;20215;-73
2022/12/20 09:28:33;;;;;;;2.10;0.60;;;11.30;99.90;;;;;;4881750;29;20218;-71
2022/12/20 09:31:00;;;;;;;1.40;0.90;;;11.40;99.90;;;;;;4881867;29;20211;-69
2022/12/20 09:33:29;;;;;;;1.90;0.80;;;11.50;99.90;;;;;;4881424;29;20235;-70
2022/12/20 09:35:56;;;;;;;1.40;0.70;;;11.60;99.90;;;;;;4881576;29;20219;-71
2022/12/20 09:38:25;;;;;;;0.87;0.60;;;11.50;99.90;;;;;;4881557;29;20559;-70
2022/12/20 09:40:55;;;;;;;1.27;0.90;;;11.50;99.90;;;;;;4881738;29;20327;-71
2022/12/20 18:15:07;;;;;;;8.30;3.87;;;10.70;99.90;;;;;;4901185;23;20257;-74
2022/12/20 18:17:34;;;;;;;3.60;2.20;;;10.60;99.90;;;;;;4900048;29;20323;-74
2022/12/20 18:20:01;;;;;;;3.93;2.07;;;10.70;99.90;;;;;;4898834;29;20254;-74
2022/12/20 18:22:28;;;;;;;3.37;2.63;;;10.70;99.90;;;;;;4899956;29;20230;-74
2022/12/20 18:24:55;;;;;;;11.93;5.53;;;10.70;99.90;;;;;;4899892;29;20569;-75
2022/12/20 18:27:21;;;;;;;7.50;4.33;;;10.70;99.90;;;;;;4899837;29;20210;-75
2022/12/20 18:29:48;;;;;;;8.23;4.43;;;10.70;99.90;;;;;;4899500;29;20665;-74
2022/12/20 18:32:16;;;;;;;11.77;5.73;;;10.70;99.90;;;;;;4899389;29;20240;-74
2022/12/20 18:34:43;;;;;;;4.23;2.50;;;10.70;99.90;;;;;;4899300;29;20700;-74
2022/12/20 18:37:10;;;;;;;3.97;1.90;;;10.70;99.90;;;;;;4899751;29;20210;-74
2022/12/20 18:39:37;;;;;;;10.27;4.23;;;10.70;99.90;;;;;;4899661;29;20217;-75
2022/12/20 18:42:04;;;;;;;4.77;2.63;;;10.70;99.90;;;;;;4899137;29;20242;-74
2022/12/20 18:44:34;;;;;;;3.43;2.23;;;10.80;99.90;;;;;;4899542;29;20297;-74
2022/12/20 18:47:01;;;;;;;4.20;2.10;;;10.70;99.90;;;;;;4899416;29;20222;-74
2022/12/20 18:49:30;;;;;;;2.83;1.53;;;10.70;99.90;;;;;;4899716;29;20242;-74
2022/12/20 18:51:59;;;;;;;2.17;1.53;;;10.70;99.90;;;;;;4899447;29;20245;-74
2022/12/20 18:54:26;;;;;;;6.87;3.63;;;10.70;99.90;;;;;;4899038;29;20214;-74
2022/12/20 18:56:53;;;;;;;7.83;3.93;;;10.70;99.90;;;;;;4899391;29;20297;-75
2022/12/20 18:59:20;;;;;;;3.50;2.30;;;10.80;99.90;;;;;;4899174;29;20662;-73
2022/12/20 19:01:47;;;;;;;9.23;4.00;;;10.80;99.90;;;;;;4897955;29;20246;-74
2022/12/20 19:04:14;;;;;;;7.03;3.90;;;10.80;99.90;;;;;;4898237;29;20210;-74
2022/12/20 19:06:42;;;;;;;17.77;7.00;;;10.80;99.90;;;;;;4898382;29;20229;-74
2022/12/20 19:09:11;;;;;;;6.90;3.43;;;10.80;99.90;;;;;;4898394;29;20210;-74
2022/12/20 19:11:39;;;;;;;13.23;6.43;;;10.80;99.90;;;;;;4898780;29;20726;-74
2022/12/20 19:14:07;;;;;;;8.90;4.13;;;10.80;99.90;;;;;;4898377;29;20218;-75
2022/12/20 19:16:34;;;;;;;7.93;3.50;;;10.80;99.90;;;;;;4898159;29;20214;-72
2022/12/20 19:19:02;;;;;;;3.23;1.90;;;10.80;99.90;;;;;;4898717;29;20214;-72
2022/12/20 19:21:31;;;;;;;3.90;2.60;;;10.80;99.90;;;;;;4898414;29;20242;-72
2022/12/20 19:24:02;;;;;;;4.67;2.47;;;10.70;99.90;;;;;;4898177;29;20206;-72
2022/12/20 19:26:29;;;;;;;5.33;2.40;;;10.70;99.90;;;;;;4898022;29;20674;-72
2022/12/20 19:28:56;;;;;;;5.00;2.33;;;10.80;99.90;;;;;;4897978;29;20570;-72
2022/12/20 19:31:25;;;;;;;4.73;2.87;;;10.80;99.90;;;;;;4898189;29;20234;-72
2022/12/20 19:33:54;;;;;;;3.03;2.03;;;10.80;99.90;;;;;;4898231;29;20669;-72
2022/12/20 19:36:23;;;;;;;3.20;1.87;;;10.90;99.90;;;;;;4898226;29;20211;-72
2022/12/20 19:38:52;;;;;;;2.80;1.70;;;10.90;99.90;;;;;;4898593;29;20563;-72
2022/12/20 19:41:20;;;;;;;2.43;1.53;;;10.80;99.90;;;;;;4898171;29;20257;-73
2022/12/20 19:43:50;;;;;;;3.80;2.00;;;10.80;99.90;;;;;;4898469;29;20605;-73
2022/12/20 19:46:17;;;;;;;2.27;1.60;;;10.80;99.90;;;;;;4898094;29;20250;-73
2022/12/20 19:48:44;;;;;;;2.97;1.70;;;10.80;99.90;;;;;;4898113;29;20210;-73
2022/12/20 19:51:12;;;;;;;2.57;1.87;;;10.80;99.90;;;;;;4898194;29;20234;-73
2022/12/20 19:53:41;;;;;;;2.57;1.90;;;10.80;99.90;;;;;;4898345;29;20306;-73
2022/12/20 19:56:08;;;;;;;6.23;2.90;;;10.80;99.90;;;;;;4898397;29;20223;-73
2022/12/20 19:58:37;;;;;;;2.47;1.83;;;10.70;99.90;;;;;;4898185;29;20570;-73
2022/12/20 20:01:05;;;;;;;3.03;2.20;;;10.70;99.90;;;;;;4897906;29;20732;-74
2022/12/20 20:03:32;;;;;;;4.10;2.00;;;10.80;99.90;;;;;;4898097;29;20206;-74
2022/12/20 20:05:59;;;;;;;4.50;2.23;;;10.80;99.90;;;;;;4897882;29;20211;-73
2022/12/20 20:08:26;;;;;;;3.83;1.93;;;10.70;99.90;;;;;;4897927;29;20656;-73
2022/12/20 20:10:54;;;;;;;4.27;1.67;;;10.70;99.90;;;;;;4898191;29;20620;-73
2022/12/20 20:13:21;;;;;;;2.60;1.83;;;10.70;99.90;;;;;;4898336;29;20218;-73
2022/12/20 20:15:51;;;;;;;1.93;1.60;;;10.70;99.90;;;;;;4898037;29;20211;-73
2022/12/20 20:18:18;;;;;;;3.57;1.70;;;10.80;99.90;;;;;;4897979;29;20218;-73
2022/12/20 20:20:46;;;;;;;3.10;2.23;;;10.80;99.90;;;;;;4897799;29;20242;-73
2022/12/20 20:23:13;;;;;;;15.80;6.40;;;10.80;99.90;;;;;;4897964;29;20669;-73
2022/12/20 20:25:44;;;;;;;3.43;2.10;;;10.80;99.90;;;;;;4898178;29;20206;-74
2022/12/20 20:28:11;;;;;;;5.07;2.80;;;10.70;99.90;;;;;;4897577;29;20602;-73
2022/12/20 20:30:40;;;;;;;3.67;2.50;;;10.70;99.90;;;;;;4897767;29;20237;-73
2022/12/20 20:33:08;;;;;;;7.93;4.53;;;10.70;99.90;;;;;;4888514;29;20215;-73
2022/12/20 20:35:35;;;;;;;8.53;4.17;;;10.70;99.90;;;;;;4885429;29;20206;-73
2022/12/20 20:38:02;;;;;;;6.17;2.97;;;10.80;99.90;;;;;;4888368;29;20220;-73
2022/12/20 20:40:29;;;;;;;4.27;2.43;;;10.80;99.90;;;;;;4893919;29;20229;-74
2022/12/20 20:42:56;;;;;;;2.73;1.87;;;10.90;99.90;;;;;;4895033;29;20218;-73
2022/12/20 20:45:22;;;;;;;7.27;3.60;;;10.90;99.90;;;;;;4897049;29;20210;-73
2022/12/20 20:47:49;;;;;;;4.70;2.63;;;10.90;99.90;;;;;;4896145;29;20700;-73
2022/12/20 20:50:17;;;;;;;5.97;2.50;;;10.80;99.90;;;;;;4897224;29;20206;-73
2022/12/20 20:52:44;;;;;;;6.30;3.37;;;10.80;99.90;;;;;;4892324;29;20209;-73
2022/12/20 20:55:11;;;;;;;4.13;2.63;;;10.90;99.90;;;;;;4895944;29;20867;-73
2022/12/20 20:57:38;;;;;;;3.77;2.50;;;10.90;99.90;;;;;;4898225;29;20207;-73
2022/12/20 21:00:06;;;;;;;3.57;2.20;;;10.90;99.90;;;;;;4894608;29;20214;-72
2022/12/20 21:02:33;;;;;;;3.80;2.33;;;11.00;99.90;;;;;;4900697;29;20380;-73
2022/12/20 21:05:00;;;;;;;3.17;2.37;;;11.00;99.90;;;;;;4894374;29;20680;-73
2022/12/20 21:07:28;;;;;;;4.47;2.60;;;11.00;99.90;;;;;;4900728;29;20578;-73
2022/12/20 21:09:55;;;;;;;5.00;2.90;;;11.00;99.90;;;;;;4897761;29;20210;-74
2022/12/20 21:12:22;;;;;;;4.50;3.13;;;11.00;99.90;;;;;;4899493;29;20266;-73
2022/12/20 21:14:49;;;;;;;5.63;2.53;;;11.10;99.90;;;;;;4894043;29;20222;-73
2022/12/20 21:17:16;;;;;;;4.87;2.50;;;11.20;99.90;;;;;;4898730;29;20210;-73
2022/12/20 21:19:44;;;;;;;5.63;2.27;;;11.00;99.90;;;;;;4895529;29;20232;-73
2022/12/20 21:22:11;;;;;;;3.27;2.40;;;11.00;99.90;;;;;;4898665;29;20248;-73
2022/12/20 21:24:40;;;;;;;4.97;2.93;;;11.10;99.90;;;;;;4896372;29;20206;-73
2022/12/20 21:27:06;;;;;;;3.97;2.77;;;11.10;99.90;;;;;;4897830;29;20258;-73
2022/12/20 21:29:33;;;;;;;5.03;2.90;;;11.00;99.90;;;;;;4897491;29;20645;-73
2022/12/20 21:32:00;;;;;;;2.83;2.20;;;11.10;99.90;;;;;;4895848;29;20238;-73
2022/12/20 21:34:27;;;;;;;4.60;2.30;;;11.10;99.90;;;;;;4891695;29;20655;-73
2022/12/20 21:36:54;;;;;;;3.90;2.60;;;11.00;99.90;;;;;;4894164;29;20222;-73
2022/12/20 21:39:20;;;;;;;4.40;2.57;;;11.10;99.90;;;;;;4890765;29;20215;-73
2022/12/20 21:41:48;;;;;;;3.93;2.23;;;11.00;99.90;;;;;;4895759;29;20242;-73
2022/12/20 21:44:15;;;;;;;5.10;2.87;;;11.10;99.90;;;;;;4893733;29;20670;-73
2022/12/20 21:46:42;;;;;;;5.67;2.90;;;11.20;99.90;;;;;;4890118;29;20670;-74
2022/12/20 21:49:10;;;;;;;4.63;3.03;;;11.20;99.90;;;;;;4898343;29;20210;-74
2022/12/20 21:51:37;;;;;;;3.87;2.70;;;11.10;99.90;;;;;;4895136;29;20662;-74
2022/12/20 21:54:04;;;;;;;5.27;3.23;;;11.00;99.90;;;;;;4895975;29;20207;-73
2022/12/20 21:56:34;;;;;;;5.83;3.53;;;11.00;99.90;;;;;;4893961;29;20207;-73
2022/12/20 21:59:03;;;;;;;6.20;3.70;;;11.00;99.90;;;;;;4894896;29;20301;-73
2022/12/20 22:01:30;;;;;;;5.20;3.30;;;10.90;99.90;;;;;;4893736;29;20242;-74
2022/12/20 22:03:59;;;;;;;5.30;3.20;;;10.80;99.90;;;;;;4898334;29;20674;-74
2022/12/20 22:06:27;;;;;;;6.93;3.40;;;10.80;99.90;;;;;;4891468;29;20207;-74
2022/12/20 22:08:54;;;;;;;5.47;3.30;;;10.80;99.90;;;;;;4894253;29;20225;-73
2022/12/20 22:11:20;;;;;;;7.43;4.13;;;10.80;99.90;;;;;;4888584;29;20241;-73
2022/12/20 22:13:47;;;;;;;8.73;4.30;;;10.80;99.90;;;;;;4893611;29;20222;-73
2022/12/20 22:16:17;;;;;;;8.37;4.20;;;10.80;99.90;;;;;;4883029;29;20237;-73
